sensor_id;sensor_type;location;lat;lon;timestamp;temperature;humidity
21282;DHT22;10800;53.096;18.328;2023-02-26T00:04:41;0.80;99.90
21282;DHT22;10800;53.096;18.328;2023-02-26T00:09:46;0.70;99.90
21282;DHT22;10800;53.096;18.328;2023-02-26T00:14:52;0.70;99.90
21282;DHT22;10800;53.096;18.328;2023-02-26T00:19:58;0.80;99.90
21282;DHT22;10800;53.096;18.328;2023-02-26T00:25:03;0.80;99.90
21282;DHT22;10800;53.096;18.328;2023-02-26T00:30:09;0.80;99.90
21282;DHT22;10800;53.096;18.328;2023-02-26T00:35:16;0.80;99.90
21282;DHT22;10800;53.096;18.328;2023-02-26T00:40:47;0.80;99.90
21282;DHT22;10800;53.096;18.328;2023-02-26T00:46:23;0.90;99.90
21282;DHT22;10800;53.096;18.328;2023-02-26T00:56:43;0.80;99.90
21282;DHT22;10800;53.096;18.328;2023-02-26T01:01:50;0.80;99.90
21282;DHT22;10800;53.096;18.328;2023-02-26T01:06:56;0.80;99.90
21282;DHT22;10800;53.096;18.328;2023-02-26T01:12:04;0.70;99.90
21282;DHT22;10800;53.096;18.328;2023-02-26T01:17:18;0.80;99.90
21282;DHT22;10800;53.096;18.328;2023-02-26T01:22:39;0.70;99.90
21282;DHT22;10800;53.096;18.328;2023-02-26T01:27:44;0.70;99.90
21282;DHT22;10800;53.096;18.328;2023-02-26T01:33:11;0.60;99.90
21282;DHT22;10800;53.096;18.328;2023-02-26T01:38:38;0.70;99.90
21282;DHT22;10800;53.096;18.328;2023-02-26T01:43:50;0.60;99.90
21282;DHT22;10800;53.096;18.328;2023-02-26T01:48:55;0.60;99.90
21282;DHT22;10800;53.096;18.328;2023-02-26T01:54:02;0.70;99.90
21282;DHT22;10800;53.096;18.328;2023-02-26T01:59:10;0.70;99.90
21282;DHT22;10800;53.096;18.328;2023-02-26T02:04:16;0.80;99.90
21282;DHT22;10800;53.096;18.328;2023-02-26T02:09:22;0.70;99.90
21282;DHT22;10800;53.096;18.328;2023-02-26T02:36:05;0.50;99.90
21282;DHT22;10800;53.096;18.328;2023-02-26T02:41:16;0.60;99.90
21282;DHT22;10800;53.096;18.328;2023-02-26T02:46:23;0.60;99.90
21282;DHT22;10800;53.096;18.328;2023-02-26T02:56:48;0.60;99.90
21282;DHT22;10800;53.096;18.328;2023-02-26T03:02:05;0.60;99.90
21282;DHT22;10800;53.096;18.328;2023-02-26T03:07:04;0.50;99.90
21282;DHT22;10800;53.096;18.328;2023-02-26T03:12:09;0.60;99.90
21282;DHT22;10800;53.096;18.328;2023-02-26T03:28:14;0.60;99.90
21282;DHT22;10800;53.096;18.328;2023-02-26T03:33:45;0.60;99.90
21282;DHT22;10800;53.096;18.328;2023-02-26T03:44:07;0.50;99.90
21282;DHT22;10800;53.096;18.328;2023-02-26T03:49:15;0.40;99.90
21282;DHT22;10800;53.096;18.328;2023-02-26T03:54:25;0.40;99.90
21282;DHT22;10800;53.096;18.328;2023-02-26T03:59:29;0.30;99.90
21282;DHT22;10800;53.096;18.328;2023-02-26T04:09:59;0.40;99.90
21282;DHT22;10800;53.096;18.328;2023-02-26T04:15:04;0.40;99.90
21282;DHT22;10800;53.096;18.328;2023-02-26T04:20:11;0.30;99.90
21282;DHT22;10800;53.096;18.328;2023-02-26T04:25:16;0.30;99.90
21282;DHT22;10800;53.096;18.328;2023-02-26T04:30:22;0.30;99.90
21282;DHT22;10800;53.096;18.328;2023-02-26T04:35:27;0.30;99.90
21282;DHT22;10800;53.096;18.328;2023-02-26T04:40:33;0.30;99.90
21282;DHT22;10800;53.096;18.328;2023-02-26T04:45:38;0.30;99.90
21282;DHT22;10800;53.096;18.328;2023-02-26T04:50:44;0.20;99.90
21282;DHT22;10800;53.096;18.328;2023-02-26T04:55:49;0.20;99.90
21282;DHT22;10800;53.096;18.328;2023-02-26T05:00:56;0.30;99.90
21282;DHT22;10800;53.096;18.328;2023-02-26T05:06:02;0.40;99.90
21282;DHT22;10800;53.096;18.328;2023-02-26T05:11:09;0.30;99.90
21282;DHT22;10800;53.096;18.328;2023-02-26T05:16:15;0.30;99.90
21282;DHT22;10800;53.096;18.328;2023-02-26T05:21:20;0.30;99.90
21282;DHT22;10800;53.096;18.328;2023-02-26T05:26:27;0.30;99.90
21282;DHT22;10800;53.096;18.328;2023-02-26T05:31:33;0.30;99.90
21282;DHT22;10800;53.096;18.328;2023-02-26T05:36:38;0.30;99.90
21282;DHT22;10800;53.096;18.328;2023-02-26T05:41:45;0.30;99.90
21282;DHT22;10800;53.096;18.328;2023-02-26T05:46:51;0.30;99.90
21282;DHT22;10800;53.096;18.328;2023-02-26T05:51:58;0.40;99.90
21282;DHT22;10800;53.096;18.328;2023-02-26T05:57:03;0.40;99.90
21282;DHT22;10800;53.096;18.328;2023-02-26T06:02:08;0.40;99.90
21282;DHT22;10800;53.096;18.328;2023-02-26T06:07:14;0.30;99.90
21282;DHT22;10800;53.096;18.328;2023-02-26T06:12:19;0.30;99.90
21282;DHT22;10800;53.096;18.328;2023-02-26T06:17:24;0.40;99.90
21282;DHT22;10800;53.096;18.328;2023-02-26T06:22:31;0.40;99.90
21282;DHT22;10800;53.096;18.328;2023-02-26T06:27:47;0.50;99.90
21282;DHT22;10800;53.096;18.328;2023-02-26T06:32:52;0.50;99.90
21282;DHT22;10800;53.096;18.328;2023-02-26T06:37:57;0.70;99.90
21282;DHT22;10800;53.096;18.328;2023-02-26T06:43:03;0.80;99.90
21282;DHT22;10800;53.096;18.328;2023-02-26T06:48:08;0.90;99.90
21282;DHT22;10800;53.096;18.328;2023-02-26T06:53:13;1.00;99.90
21282;DHT22;10800;53.096;18.328;2023-02-26T06:58:19;1.00;99.90
21282;DHT22;10800;53.096;18.328;2023-02-26T07:03:24;1.00;99.90
21282;DHT22;10800;53.096;18.328;2023-02-26T07:08:32;1.10;99.90
21282;DHT22;10800;53.096;18.328;2023-02-26T07:13:37;1.10;99.90
21282;DHT22;10800;53.096;18.328;2023-02-26T07:18:42;1.10;99.90
21282;DHT22;10800;53.096;18.328;2023-02-26T07:23:47;1.10;99.90
21282;DHT22;10800;53.096;18.328;2023-02-26T07:28:53;1.20;99.90
21282;DHT22;10800;53.096;18.328;2023-02-26T07:33:59;1.30;99.90
21282;DHT22;10800;53.096;18.328;2023-02-26T07:39:04;1.30;99.90
21282;DHT22;10800;53.096;18.328;2023-02-26T07:44:09;1.30;99.90
21282;DHT22;10800;53.096;18.328;2023-02-26T07:49:14;1.30;99.90
21282;DHT22;10800;53.096;18.328;2023-02-26T07:54:20;1.20;99.90
21282;DHT22;10800;53.096;18.328;2023-02-26T07:59:26;1.20;99.90
21282;DHT22;10800;53.096;18.328;2023-02-26T08:04:31;1.30;99.90
21282;DHT22;10800;53.096;18.328;2023-02-26T08:09:37;1.20;99.90
21282;DHT22;10800;53.096;18.328;2023-02-26T08:14:42;1.20;99.90
21282;DHT22;10800;53.096;18.328;2023-02-26T08:19:48;1.60;99.90
21282;DHT22;10800;53.096;18.328;2023-02-26T08:24:53;1.70;99.90
21282;DHT22;10800;53.096;18.328;2023-02-26T08:29:59;1.60;99.90
21282;DHT22;10800;53.096;18.328;2023-02-26T08:35:05;1.60;99.90
21282;DHT22;10800;53.096;18.328;2023-02-26T08:40:16;1.50;99.90
21282;DHT22;10800;53.096;18.328;2023-02-26T08:45:21;1.50;99.90
21282;DHT22;10800;53.096;18.328;2023-02-26T08:50:27;1.60;99.90
21282;DHT22;10800;53.096;18.328;2023-02-26T08:55:33;1.70;99.90
21282;DHT22;10800;53.096;18.328;2023-02-26T09:00:39;1.60;99.90
21282;DHT22;10800;53.096;18.328;2023-02-26T09:05:44;1.60;99.90
21282;DHT22;10800;53.096;18.328;2023-02-26T09:10:49;1.70;99.90
21282;DHT22;10800;53.096;18.328;2023-02-26T09:15:55;1.80;99.90
21282;DHT22;10800;53.096;18.328;2023-02-26T09:21:01;1.90;99.90
21282;DHT22;10800;53.096;18.328;2023-02-26T09:26:06;1.80;99.90
21282;DHT22;10800;53.096;18.328;2023-02-26T09:31:12;2.00;99.90
21282;DHT22;10800;53.096;18.328;2023-02-26T09:36:18;2.10;99.90
21282;DHT22;10800;53.096;18.328;2023-02-26T09:41:41;2.40;99.90
21282;DHT22;10800;53.096;18.328;2023-02-26T09:57:42;4.50;99.90
21282;DHT22;10800;53.096;18.328;2023-02-26T10:02:57;4.70;99.90
21282;DHT22;10800;53.096;18.328;2023-02-26T10:08:22;4.70;99.90
21282;DHT22;10800;53.096;18.328;2023-02-26T10:13:36;4.70;99.90
21282;DHT22;10800;53.096;18.328;2023-02-26T10:18:48;4.50;99.90
21282;DHT22;10800;53.096;18.328;2023-02-26T10:23:57;4.30;99.90
21282;DHT22;10800;53.096;18.328;2023-02-26T10:34:53;3.90;99.90
21282;DHT22;10800;53.096;18.328;2023-02-26T10:40:03;3.90;99.90
21282;DHT22;10800;53.096;18.328;2023-02-26T10:50:55;4.30;99.90
21282;DHT22;10800;53.096;18.328;2023-02-26T10:56:10;4.70;99.90
21282;DHT22;10800;53.096;18.328;2023-02-26T11:01:18;5.00;99.90
21282;DHT22;10800;53.096;18.328;2023-02-26T11:06:33;5.10;96.60
21282;DHT22;10800;53.096;18.328;2023-02-26T11:17:00;6.00;92.00
21282;DHT22;10800;53.096;18.328;2023-02-26T11:22:02;5.60;91.30
21282;DHT22;10800;53.096;18.328;2023-02-26T11:27:23;5.20;91.90
21282;DHT22;10800;53.096;18.328;2023-02-26T11:32:32;4.40;93.50
21282;DHT22;10800;53.096;18.328;2023-02-26T11:37:47;4.10;94.30
21282;DHT22;10800;53.096;18.328;2023-02-26T11:42:57;4.00;94.80
21282;DHT22;10800;53.096;18.328;2023-02-26T11:48:06;4.10;95.00
21282;DHT22;10800;53.096;18.328;2023-02-26T11:53:18;4.40;94.80
21282;DHT22;10800;53.096;18.328;2023-02-26T11:58:34;4.50;93.00
21282;DHT22;10800;53.096;18.328;2023-02-26T12:03:42;4.50;90.60
21282;DHT22;10800;53.096;18.328;2023-02-26T12:08:47;4.40;90.10
21282;DHT22;10800;53.096;18.328;2023-02-26T12:19:15;4.20;87.40
21282;DHT22;10800;53.096;18.328;2023-02-26T12:24:36;4.00;86.40
21282;DHT22;10800;53.096;18.328;2023-02-26T12:45:48;4.00;87.10
21282;DHT22;10800;53.096;18.328;2023-02-26T13:07:49;3.90;88.50
21282;DHT22;10800;53.096;18.328;2023-02-26T13:23:47;4.40;80.10
21282;DHT22;10800;53.096;18.328;2023-02-26T13:28:56;4.20;82.20
21282;DHT22;10800;53.096;18.328;2023-02-26T13:34:05;4.10;82.80
21282;DHT22;10800;53.096;18.328;2023-02-26T13:55:05;3.70;90.50
21282;DHT22;10800;53.096;18.328;2023-02-26T14:00:36;3.60;91.00
21282;DHT22;10800;53.096;18.328;2023-02-26T14:05:51;3.50;91.90
21282;DHT22;10800;53.096;18.328;2023-02-26T14:11:02;3.50;92.00
21282;DHT22;10800;53.096;18.328;2023-02-26T14:16:13;3.50;91.80
21282;DHT22;10800;53.096;18.328;2023-02-26T14:21:51;3.50;91.90
21282;DHT22;10800;53.096;18.328;2023-02-26T14:37:42;3.40;91.80
21282;DHT22;10800;53.096;18.328;2023-02-26T14:42:58;3.40;90.90
21282;DHT22;10800;53.096;18.328;2023-02-26T14:48:06;3.30;90.50
21282;DHT22;10800;53.096;18.328;2023-02-26T15:09:57;3.20;89.10
21282;DHT22;10800;53.096;18.328;2023-02-26T15:25:42;3.10;87.90
21282;DHT22;10800;53.096;18.328;2023-02-26T15:30:49;3.10;85.00
21282;DHT22;10800;53.096;18.328;2023-02-26T15:35:56;3.00;85.40
21282;DHT22;10800;53.096;18.328;2023-02-26T15:41:03;2.90;86.50
21282;DHT22;10800;53.096;18.328;2023-02-26T15:46:09;2.90;87.50
21282;DHT22;10800;53.096;18.328;2023-02-26T15:51:16;2.80;88.20
21282;DHT22;10800;53.096;18.328;2023-02-26T15:56:27;2.80;85.80
21282;DHT22;10800;53.096;18.328;2023-02-26T16:01:32;2.70;87.30
21282;DHT22;10800;53.096;18.328;2023-02-26T16:06:42;2.60;88.00
21282;DHT22;10800;53.096;18.328;2023-02-26T16:11:49;2.60;87.70
21282;DHT22;10800;53.096;18.328;2023-02-26T16:16:56;2.60;85.30
21282;DHT22;10800;53.096;18.328;2023-02-26T16:22:17;2.50;86.00
21282;DHT22;10800;53.096;18.328;2023-02-26T16:27:16;2.40;86.60
21282;DHT22;10800;53.096;18.328;2023-02-26T16:32:27;2.40;85.00
21282;DHT22;10800;53.096;18.328;2023-02-26T16:37:34;2.30;85.70
21282;DHT22;10800;53.096;18.328;2023-02-26T16:43:04;2.30;81.10
21282;DHT22;10800;53.096;18.328;2023-02-26T16:48:29;2.30;81.30
21282;DHT22;10800;53.096;18.328;2023-02-26T16:53:39;2.30;82.40
21282;DHT22;10800;53.096;18.328;2023-02-26T16:58:48;2.20;82.70
21282;DHT22;10800;53.096;18.328;2023-02-26T17:03:57;2.10;84.20
21282;DHT22;10800;53.096;18.328;2023-02-26T17:09:04;2.10;85.90
21282;DHT22;10800;53.096;18.328;2023-02-26T17:14:23;1.90;86.90
21282;DHT22;10800;53.096;18.328;2023-02-26T17:19:28;1.80;88.50
21282;DHT22;10800;53.096;18.328;2023-02-26T17:24:35;1.80;89.20
21282;DHT22;10800;53.096;18.328;2023-02-26T17:29:45;1.80;89.30
21282;DHT22;10800;53.096;18.328;2023-02-26T17:34:53;1.80;90.00
21282;DHT22;10800;53.096;18.328;2023-02-26T17:39:59;1.80;90.10
21282;DHT22;10800;53.096;18.328;2023-02-26T17:45:05;1.80;90.80
21282;DHT22;10800;53.096;18.328;2023-02-26T17:50:26;1.80;91.20
21282;DHT22;10800;53.096;18.328;2023-02-26T17:55:32;1.70;90.90
21282;DHT22;10800;53.096;18.328;2023-02-26T18:00:39;1.70;91.10
21282;DHT22;10800;53.096;18.328;2023-02-26T18:05:48;1.50;91.20
21282;DHT22;10800;53.096;18.328;2023-02-26T18:10:55;1.30;91.50
21282;DHT22;10800;53.096;18.328;2023-02-26T18:16:01;1.10;92.00
21282;DHT22;10800;53.096;18.328;2023-02-26T18:21:09;1.00;92.50
21282;DHT22;10800;53.096;18.328;2023-02-26T18:26:16;0.80;93.10
21282;DHT22;10800;53.096;18.328;2023-02-26T18:31:24;0.80;93.70
21282;DHT22;10800;53.096;18.328;2023-02-26T18:36:33;0.70;94.10
21282;DHT22;10800;53.096;18.328;2023-02-26T18:41:41;0.70;94.70
21282;DHT22;10800;53.096;18.328;2023-02-26T18:46:46;0.60;95.50
21282;DHT22;10800;53.096;18.328;2023-02-26T18:51:52;0.60;95.80
21282;DHT22;10800;53.096;18.328;2023-02-26T18:57:00;0.60;96.40
21282;DHT22;10800;53.096;18.328;2023-02-26T19:02:06;0.50;97.00
21282;DHT22;10800;53.096;18.328;2023-02-26T19:07:14;0.50;98.20
21282;DHT22;10800;53.096;18.328;2023-02-26T19:12:19;0.50;99.90
21282;DHT22;10800;53.096;18.328;2023-02-26T19:17:35;0.50;99.90
21282;DHT22;10800;53.096;18.328;2023-02-26T19:22:36;0.60;99.90
21282;DHT22;10800;53.096;18.328;2023-02-26T19:27:43;0.70;99.90
21282;DHT22;10800;53.096;18.328;2023-02-26T19:32:49;0.70;99.90
21282;DHT22;10800;53.096;18.328;2023-02-26T19:38:00;0.80;99.90
21282;DHT22;10800;53.096;18.328;2023-02-26T19:43:05;0.80;99.90
21282;DHT22;10800;53.096;18.328;2023-02-26T19:48:11;0.90;99.90
21282;DHT22;10800;53.096;18.328;2023-02-26T19:53:16;1.00;99.90
21282;DHT22;10800;53.096;18.328;2023-02-26T19:58:23;1.00;99.90
21282;DHT22;10800;53.096;18.328;2023-02-26T20:03:30;1.10;99.90
21282;DHT22;10800;53.096;18.328;2023-02-26T20:08:36;1.10;99.90
21282;DHT22;10800;53.096;18.328;2023-02-26T20:13:41;1.10;99.90
21282;DHT22;10800;53.096;18.328;2023-02-26T20:18:47;1.10;99.90
21282;DHT22;10800;53.096;18.328;2023-02-26T20:23:52;1.10;99.90
21282;DHT22;10800;53.096;18.328;2023-02-26T20:28:59;1.00;99.90
21282;DHT22;10800;53.096;18.328;2023-02-26T20:34:05;0.90;99.90
21282;DHT22;10800;53.096;18.328;2023-02-26T20:39:10;0.80;99.90
21282;DHT22;10800;53.096;18.328;2023-02-26T20:44:16;0.80;99.90
21282;DHT22;10800;53.096;18.328;2023-02-26T20:49:21;0.80;99.90
21282;DHT22;10800;53.096;18.328;2023-02-26T20:54:28;0.70;99.90
21282;DHT22;10800;53.096;18.328;2023-02-26T20:59:34;0.50;99.90
21282;DHT22;10800;53.096;18.328;2023-02-26T21:04:39;0.40;99.90
21282;DHT22;10800;53.096;18.328;2023-02-26T21:09:45;0.40;99.90
21282;DHT22;10800;53.096;18.328;2023-02-26T21:14:52;0.30;99.90
21282;DHT22;10800;53.096;18.328;2023-02-26T21:19:59;0.20;99.90
21282;DHT22;10800;53.096;18.328;2023-02-26T21:25:05;0.10;99.90
21282;DHT22;10800;53.096;18.328;2023-02-26T21:30:12;0.00;99.90
21282;DHT22;10800;53.096;18.328;2023-02-26T21:35:18;-0.10;99.90
21282;DHT22;10800;53.096;18.328;2023-02-26T21:40:23;-0.20;99.90
21282;DHT22;10800;53.096;18.328;2023-02-26T21:45:30;-0.40;99.90
21282;DHT22;10800;53.096;18.328;2023-02-26T21:50:37;-0.50;99.90
21282;DHT22;10800;53.096;18.328;2023-02-26T21:55:42;-0.70;99.90
21282;DHT22;10800;53.096;18.328;2023-02-26T22:00:47;-0.80;99.90
21282;DHT22;10800;53.096;18.328;2023-02-26T22:05:53;-0.90;99.90
21282;DHT22;10800;53.096;18.328;2023-02-26T22:11:00;-1.00;99.90
21282;DHT22;10800;53.096;18.328;2023-02-26T22:16:06;-1.00;99.90
21282;DHT22;10800;53.096;18.328;2023-02-26T22:21:11;-1.00;99.90
21282;DHT22;10800;53.096;18.328;2023-02-26T22:26:16;-1.00;99.90
21282;DHT22;10800;53.096;18.328;2023-02-26T22:31:22;-1.10;99.90
21282;DHT22;10800;53.096;18.328;2023-02-26T22:36:28;-1.10;99.90
21282;DHT22;10800;53.096;18.328;2023-02-26T22:41:34;-1.20;99.90
21282;DHT22;10800;53.096;18.328;2023-02-26T22:46:40;-1.20;99.90
21282;DHT22;10800;53.096;18.328;2023-02-26T22:51:45;-1.20;99.90
21282;DHT22;10800;53.096;18.328;2023-02-26T22:56:51;-1.30;99.90
21282;DHT22;10800;53.096;18.328;2023-02-26T23:01:56;-1.30;99.90
21282;DHT22;10800;53.096;18.328;2023-02-26T23:07:01;-1.40;99.90
21282;DHT22;10800;53.096;18.328;2023-02-26T23:12:08;-1.40;99.90
21282;DHT22;10800;53.096;18.328;2023-02-26T23:17:13;-1.50;99.90
21282;DHT22;10800;53.096;18.328;2023-02-26T23:22:19;-1.50;99.90
21282;DHT22;10800;53.096;18.328;2023-02-26T23:27:25;-1.50;99.90
21282;DHT22;10800;53.096;18.328;2023-02-26T23:32:30;-1.60;99.90
21282;DHT22;10800;53.096;18.328;2023-02-26T23:37:36;-1.60;99.90
21282;DHT22;10800;53.096;18.328;2023-02-26T23:42:42;-1.60;99.90
21282;DHT22;10800;53.096;18.328;2023-02-26T23:47:47;-1.60;99.90
21282;DHT22;10800;53.096;18.328;2023-02-26T23:52:53;-1.60;99.90
21282;DHT22;10800;53.096;18.328;2023-02-26T23:57:58;-1.50;99.90
